Time;durP1;ratioP1;P1;durP2;ratioP2;P2;SDS_P1;SDS_P2;PMS_P1;PMS_P2;Temp;Humidity;BMP_temperature;BMP_pressure;BME280_temperature;BME280_humidity;BME280_pressure;Samples;Min_cycle;Max_cycle;Signal;HPM_P1;HPM_P2
2021/07/28 00:01:40;;;;;;;24.40;14.83;;;;;;;24.04;64.09;99287.66;1743012;81;20887;-40
2021/07/28 00:04:07;;;;;;;26.35;13.83;;;;;;;24.03;63.99;99293.80;1743293;82;20973;-40
2021/07/28 00:06:33;;;;;;;23.27;14.50;;;;;;;24.07;64.05;99288.12;1743012;82;21050;-40
2021/07/28 00:09:01;;;;;;;20.30;14.55;;;;;;;24.08;64.15;99288.30;1743389;82;21037;-40
2021/07/28 00:11:27;;;;;;;20.30;14.73;;;;;;;24.09;64.50;99279.55;1743245;82;21112;-40
2021/07/28 00:13:54;;;;;;;24.75;15.85;;;;;;;24.12;64.59;99280.62;1742939;82;21528;-40
2021/07/28 00:16:20;;;;;;;21.12;15.20;;;;;;;24.12;64.45;99270.92;1743262;82;21029;-40
2021/07/28 00:18:59;;;;;;;24.75;15.45;;;;;;;24.10;63.98;99265.86;1743166;82;21591;-40
2021/07/28 00:24:03;;;;;;;23.15;14.70;;;;;;;24.03;64.07;99273.64;1743522;82;21154;-40
2021/07/28 00:26:31;;;;;;;27.20;15.30;;;;;;;24.01;64.29;99269.19;1743208;82;20934;-40
2021/07/28 00:28:57;;;;;;;23.60;15.45;;;;;;;23.99;64.32;99262.70;1743146;82;21097;-40
2021/07/28 00:31:24;;;;;;;24.37;15.83;;;;;;;23.98;64.28;99257.61;1743208;82;21012;-40
2021/07/28 00:33:51;;;;;;;25.88;16.25;;;;;;;23.93;64.03;99259.58;1743296;82;21591;-40
2021/07/28 00:36:17;;;;;;;23.05;15.50;;;;;;;23.87;64.20;99257.25;1743320;82;21134;-40
2021/07/28 00:38:44;;;;;;;19.60;14.07;;;;;;;23.85;64.46;99254.16;1743117;82;21768;-40
2021/07/28 00:41:13;;;;;;;21.75;13.98;;;;;;;23.85;64.87;99241.70;1743242;82;21017;-40
2021/07/28 00:43:40;;;;;;;23.05;14.60;;;;;;;23.89;64.82;99235.41;1743347;82;21042;-40
2021/07/28 00:46:07;;;;;;;22.17;15.50;;;;;;;23.91;64.84;99234.36;1743292;82;21021;-40
2021/07/28 00:48:33;;;;;;;22.55;15.32;;;;;;;23.92;64.94;99240.80;1743350;82;21137;-40
2021/07/28 00:51:00;;;;;;;21.90;15.23;;;;;;;23.91;64.87;99246.81;1743146;82;21046;-40
2021/07/28 00:53:27;;;;;;;25.65;16.25;;;;;;;23.93;64.94;99248.50;1743224;82;20962;-40
2021/07/28 00:55:55;;;;;;;23.70;14.43;;;;;;;23.91;64.87;99249.58;1754313;81;21641;-40
2021/07/28 00:58:21;;;;;;;23.32;14.18;;;;;;;23.90;64.78;99250.19;1756759;81;21036;-40
2021/07/28 01:00:48;;;;;;;18.60;15.40;;;;;;;23.96;64.80;99249.78;1756296;81;21178;-40
2021/07/28 01:03:15;;;;;;;24.47;14.45;;;;;;;23.98;64.92;99242.38;1756423;81;21041;-40
2021/07/28 01:05:42;;;;;;;27.75;15.68;;;;;;;23.98;64.87;99240.39;1756630;81;20902;-40
2021/07/28 01:10:10;;;;;;;22.62;14.85;;;;;;;24.03;64.76;99245.95;1773880;79;22762;-40
2021/07/28 01:12:42;;;;;;;24.60;15.15;;;;;;;23.88;64.65;99252.63;1746370;82;21691;-40
2021/07/28 01:15:07;;;;;;;21.87;14.10;;;;;;;23.84;64.78;99258.91;1746017;82;21545;-40
2021/07/28 01:17:34;;;;;;;24.95;13.58;;;;;;;23.85;64.81;99261.84;1746245;82;21497;-40
2021/07/28 01:20:05;;;;;;;22.13;14.20;;;;;;;23.88;64.74;99263.70;1746146;82;20936;-40
2021/07/28 01:22:33;;;;;;;21.15;14.33;;;;;;;23.91;64.76;99260.66;1746326;82;20991;-40
2021/07/28 01:25:00;;;;;;;23.50;14.33;;;;;;;23.91;64.59;99263.43;1746261;82;21473;-40
2021/07/28 01:27:27;;;;;;;22.95;14.35;;;;;;;23.90;64.65;99266.03;1746368;82;21198;-40
2021/07/28 01:29:53;;;;;;;22.22;14.35;;;;;;;23.90;64.60;99257.11;1693250;80;20951;-40
2021/07/28 01:32:20;;;;;;;17.30;12.98;;;;;;;23.89;64.79;99258.33;1756945;81;21494;-40
2021/07/28 01:34:47;;;;;;;23.40;13.45;;;;;;;23.94;64.71;99255.59;1756791;81;21005;-40
2021/07/28 01:37:14;;;;;;;23.10;13.00;;;;;;;23.99;64.80;99255.01;1756992;81;20981;-40
2021/07/28 01:39:41;;;;;;;23.52;13.78;;;;;;;24.03;64.94;99250.88;1756946;81;21550;-40
2021/07/28 01:42:08;;;;;;;23.22;14.38;;;;;;;24.05;65.20;99251.82;1756897;81;20957;-40
2021/07/28 01:44:36;;;;;;;28.05;17.25;;;;;;;24.06;65.20;99256.14;1757116;81;21058;-40
2021/07/28 01:47:04;;;;;;;22.30;13.25;;;;;;;24.07;65.52;99252.90;1756902;81;21494;-40
2021/07/28 01:49:31;;;;;;;19.85;9.63;;;;;;;24.05;65.44;99235.20;1756937;81;21597;-40
2021/07/28 01:51:57;;;;;;;13.62;6.80;;;;;;;23.90;64.08;99255.73;1757002;81;21784;-40
2021/07/28 01:54:24;;;;;;;15.83;7.17;;;;;;;23.77;62.03;99239.78;1757042;81;21042;-40
2021/07/28 01:56:50;;;;;;;17.30;7.42;;;;;;;23.67;61.97;99236.18;1757054;81;20969;-40
2021/07/28 01:59:17;;;;;;;17.67;7.83;;;;;;;23.62;62.98;99247.08;1757028;81;21564;-40
2021/07/28 02:01:44;;;;;;;16.75;7.78;;;;;;;23.60;63.27;99248.13;1756939;81;21044;-40
2021/07/28 02:04:11;;;;;;;13.70;7.83;;;;;;;23.56;63.01;99241.95;1757010;81;21133;-40
2021/07/28 02:06:38;;;;;;;12.73;7.90;;;;;;;23.53;64.07;99243.61;1756682;81;21052;-40
2021/07/28 02:09:06;;;;;;;20.80;8.55;;;;;;;23.53;63.61;99251.17;1751112;81;21097;-40
2021/07/28 02:11:34;;;;;;;15.88;8.90;;;;;;;23.54;63.84;99247.93;1743793;82;20976;-40
2021/07/28 02:14:02;;;;;;;14.40;9.20;;;;;;;23.56;64.52;99247.49;1756509;80;21056;-40
2021/07/28 02:16:29;;;;;;;15.70;9.55;;;;;;;23.53;65.30;99248.40;1774486;80;21083;-40
2021/07/28 02:18:56;;;;;;;16.95;9.98;;;;;;;23.54;66.17;99241.63;1774462;80;21064;-40
2021/07/28 02:21:22;;;;;;;14.45;9.38;;;;;;;23.60;66.58;99236.45;1773935;80;20937;-40
2021/07/28 02:23:49;;;;;;;17.60;10.05;;;;;;;23.67;66.76;99232.03;1773888;80;21012;-40
2021/07/28 02:26:16;;;;;;;14.28;10.13;;;;;;;23.75;66.76;99229.18;1774149;80;21041;-40
2021/07/28 02:28:43;;;;;;;17.10;10.55;;;;;;;23.79;67.02;99236.73;1773925;80;21956;-40
2021/07/28 02:31:10;;;;;;;20.25;11.35;;;;;;;23.81;66.65;99234.30;1773964;80;20930;-40
2021/07/28 02:33:37;;;;;;;22.05;10.08;;;;;;;23.82;67.12;99235.83;1774024;80;21022;-40
2021/07/28 02:36:04;;;;;;;16.35;9.25;;;;;;;23.86;67.33;99234.94;1773803;80;21594;-40
2021/07/28 02:38:30;;;;;;;16.55;9.63;;;;;;;23.92;67.08;99234.48;1774293;80;21041;-40
2021/07/28 02:40:58;;;;;;;26.75;11.40;;;;;;;23.95;67.38;99226.68;1773871;80;21847;-40
2021/07/28 02:43:25;;;;;;;17.55;11.90;;;;;;;23.97;67.17;99229.75;1773751;80;21005;-40
2021/07/28 02:45:52;;;;;;;22.27;11.22;;;;;;;23.91;67.26;99227.44;1774123;80;21014;-40
2021/07/28 02:48:18;;;;;;;17.70;10.82;;;;;;;23.79;67.48;99218.74;1773996;80;20993;-40
2021/07/28 02:50:45;;;;;;;21.40;11.78;;;;;;;23.74;67.38;99231.01;1773939;80;21037;-40
2021/07/28 02:53:12;;;;;;;15.98;12.03;;;;;;;23.68;67.40;99233.58;1774087;80;21937;-40
2021/07/28 02:55:39;;;;;;;16.80;13.35;;;;;;;23.63;67.61;99243.84;1773753;80;21021;-40
2021/07/28 02:58:05;;;;;;;19.20;13.62;;;;;;;23.60;67.66;99241.98;1774012;80;20961;-40
2021/07/28 03:00:33;;;;;;;21.12;13.08;;;;;;;23.56;67.58;99252.42;1774018;80;20978;-40
2021/07/28 03:03:00;;;;;;;25.85;13.60;;;;;;;23.49;67.56;99258.19;1773783;80;20986;-40
2021/07/28 03:05:27;;;;;;;23.75;14.23;;;;;;;23.47;67.60;99256.50;1773964;80;21142;-40
2021/07/28 03:07:53;;;;;;;21.70;14.33;;;;;;;23.47;67.93;99249.58;1774006;80;21540;-40
2021/07/28 03:10:22;;;;;;;20.05;14.50;;;;;;;23.49;68.19;99249.89;1773844;80;20962;-40
2021/07/28 03:12:48;;;;;;;21.65;13.88;;;;;;;23.53;68.35;99256.70;1773810;80;21603;-40
2021/07/28 03:15:15;;;;;;;19.77;13.98;;;;;;;23.60;68.46;99260.59;1774058;80;21120;-40
2021/07/28 03:17:42;;;;;;;17.27;13.20;;;;;;;23.67;68.54;99262.47;1774035;80;21144;-40
2021/07/28 03:20:10;;;;;;;21.77;13.95;;;;;;;23.72;68.54;99261.89;1773874;80;21012;-40
2021/07/28 03:22:37;;;;;;;19.62;14.07;;;;;;;23.76;68.55;99271.48;1773927;80;21018;-40
2021/07/28 03:25:05;;;;;;;19.90;15.28;;;;;;;23.77;68.35;99276.55;1774064;80;21069;-40
2021/07/28 03:27:31;;;;;;;20.02;13.83;;;;;;;23.76;68.05;99280.56;1774123;80;21026;-40
2021/07/28 03:29:58;;;;;;;19.87;14.25;;;;;;;23.74;68.19;99275.30;1772159;80;21137;-40
2021/07/28 03:32:25;;;;;;;25.27;14.95;;;;;;;23.81;67.84;99279.20;1743076;82;20949;-40
2021/07/28 03:34:51;;;;;;;20.05;16.10;;;;;;;23.86;67.60;99284.77;1743378;82;21495;-40
2021/07/28 03:37:20;;;;;;;20.00;16.12;;;;;;;23.87;67.09;99279.41;1743196;82;21468;-40
2021/07/28 03:39:47;;;;;;;24.55;16.65;;;;;;;23.87;67.03;99276.00;1743114;82;21012;-40
2021/07/28 03:42:13;;;;;;;17.95;13.95;;;;;;;23.88;67.48;99278.16;1756635;80;21146;-40
2021/07/28 03:44:40;;;;;;;20.10;14.00;;;;;;;23.87;67.90;99283.56;1773876;80;20918;-40
2021/07/28 03:47:07;;;;;;;20.97;15.68;;;;;;;23.92;68.04;99282.95;1773798;80;20949;-40
2021/07/28 03:49:34;;;;;;;26.50;16.37;;;;;;;23.97;67.84;99266.53;1773917;80;20921;-40
2021/07/28 03:52:00;;;;;;;21.57;15.95;;;;;;;23.99;67.71;99268.86;1773998;80;21080;-40
2021/07/28 03:54:27;;;;;;;23.85;15.68;;;;;;;24.00;67.80;99273.17;1773938;80;21128;-40
2021/07/28 03:56:53;;;;;;;18.65;14.73;;;;;;;24.01;67.67;99267.80;1773708;80;20962;-40
2021/07/28 03:59:20;;;;;;;23.25;14.33;;;;;;;24.04;67.72;99268.27;1773901;80;20981;-40
2021/07/28 04:01:47;;;;;;;19.48;15.60;;;;;;;24.08;67.75;99268.91;1773688;80;21053;-40
2021/07/28 04:04:13;;;;;;;26.17;15.63;;;;;;;24.12;67.50;99268.16;1773838;80;20965;-40
2021/07/28 04:06:40;;;;;;;21.17;16.62;;;;;;;24.14;67.29;99267.10;1774300;80;21025;-40
2021/07/28 04:09:07;;;;;;;17.92;14.73;;;;;;;24.15;67.47;99263.11;1773557;80;21634;-40
2021/07/28 04:11:34;;;;;;;21.05;14.00;;;;;;;24.17;67.45;99264.83;1773836;80;20989;-40
2021/07/28 04:14:00;;;;;;;18.65;14.10;;;;;;;24.15;67.36;99263.89;1773934;80;21013;-40
2021/07/28 04:16:27;;;;;;;19.02;14.50;;;;;;;24.19;67.37;99261.00;1773852;80;21005;-40
2021/07/28 04:18:54;;;;;;;19.62;14.78;;;;;;;24.22;67.41;99260.09;1773894;80;21128;-40
2021/07/28 04:21:21;;;;;;;21.93;14.38;;;;;;;24.22;67.30;99272.55;1773849;80;21000;-40
2021/07/28 04:23:48;;;;;;;24.50;16.97;;;;;;;24.21;67.13;99275.16;1773964;80;21527;-40
2021/07/28 04:26:14;;;;;;;19.30;16.12;;;;;;;24.19;67.28;99270.70;1774037;80;21041;-40
2021/07/28 04:28:41;;;;;;;20.97;14.23;;;;;;;24.17;66.96;99274.52;1774003;80;21069;-40
2021/07/28 04:31:08;;;;;;;20.62;14.05;;;;;;;24.16;66.67;99277.09;1773827;80;21114;-40
2021/07/28 04:33:34;;;;;;;21.35;14.55;;;;;;;24.17;66.66;99277.30;1773872;80;21519;-40
2021/07/28 04:36:01;;;;;;;22.05;14.75;;;;;;;24.15;66.77;99272.20;1773730;80;21018;-40
2021/07/28 04:38:28;;;;;;;17.23;13.80;;;;;;;24.17;67.17;99274.52;1773864;80;21012;-40
2021/07/28 04:40:54;;;;;;;22.65;14.68;;;;;;;24.20;67.05;99281.95;1774070;80;21633;-40
2021/07/28 04:43:21;;;;;;;19.10;13.72;;;;;;;24.27;67.48;99279.50;1773842;80;21127;-40
2021/07/28 04:45:59;;;;;;;19.32;13.85;;;;;;;24.35;67.44;99286.34;1773833;80;21046;-40
2021/07/28 04:48:27;;;;;;;21.55;14.68;;;;;;;24.38;67.57;99281.26;1773950;80;20996;-40
2021/07/28 04:50:55;;;;;;;20.75;15.05;;;;;;;24.40;67.72;99274.02;1773754;80;21048;-40
2021/07/28 04:53:22;;;;;;;22.10;13.53;;;;;;;24.44;67.77;99274.68;1773937;80;21574;-40
2021/07/28 04:55:52;;;;;;;16.97;13.58;;;;;;;24.52;68.04;99271.00;1773668;80;21135;-40
2021/07/28 04:58:20;;;;;;;21.80;13.88;;;;;;;24.63;68.15;99264.44;1773656;80;21013;-40
2021/07/28 05:00:47;;;;;;;23.42;14.95;;;;;;;24.70;67.73;99266.91;1773843;80;21013;-40
2021/07/28 05:03:14;;;;;;;21.60;14.23;;;;;;;24.74;67.69;99266.78;1774071;80;20954;-40
2021/07/28 05:05:41;;;;;;;17.95;14.05;;;;;;;24.78;67.16;99263.25;1773967;80;20993;-40
2021/07/28 05:08:08;;;;;;;17.75;12.37;;;;;;;24.77;66.83;99258.31;1773867;80;21128;-41
2021/07/28 05:10:35;;;;;;;17.85;13.00;;;;;;;24.81;66.72;99254.00;1778698;80;20988;-40
2021/07/28 05:13:03;;;;;;;17.57;12.78;;;;;;;24.85;66.19;99256.78;1782082;80;20956;-40
2021/07/28 05:15:29;;;;;;;17.10;13.13;;;;;;;24.87;66.00;99252.98;1782072;80;21530;-40
2021/07/28 05:17:56;;;;;;;17.00;12.30;;;;;;;24.87;66.35;99241.89;1782089;80;21460;-40
2021/07/28 05:20:23;;;;;;;20.27;12.90;;;;;;;24.91;66.14;99244.51;1782160;80;21117;-40
2021/07/28 05:22:51;;;;;;;18.90;12.07;;;;;;;24.89;65.60;99249.73;1782128;80;20957;-40
2021/07/28 05:25:18;;;;;;;19.30;11.93;;;;;;;24.87;65.45;99247.44;1782128;80;21049;-40
2021/07/28 05:27:44;;;;;;;15.85;11.50;;;;;;;24.84;64.96;99246.14;1781961;80;20979;-40
2021/07/28 05:30:14;;;;;;;18.37;12.15;;;;;;;24.80;65.25;99254.61;1782191;80;21518;-40
2021/07/28 05:32:41;;;;;;;17.70;13.35;;;;;;;24.78;65.07;99246.61;1782132;80;21622;-40
2021/07/28 05:35:09;;;;;;;19.27;13.53;;;;;;;24.74;64.81;99250.15;1781974;80;21012;-40
2021/07/28 05:37:36;;;;;;;18.05;13.10;;;;;;;24.68;65.28;99242.44;1782143;80;21476;-40
2021/07/28 05:40:04;;;;;;;16.93;12.13;;;;;;;24.68;65.92;99239.66;1782234;80;20981;-40
2021/07/28 05:42:31;;;;;;;17.62;13.15;;;;;;;24.71;65.75;99243.50;1782153;80;21586;-40
2021/07/28 05:44:58;;;;;;;17.20;13.58;;;;;;;24.77;66.40;99238.13;1782100;80;21530;-40
2021/07/28 05:47:24;;;;;;;22.30;14.38;;;;;;;24.80;65.69;99242.75;1782208;80;20992;-40
2021/07/28 05:49:51;;;;;;;18.02;14.13;;;;;;;24.84;66.21;99239.21;1782347;80;20961;-40
2021/07/28 05:52:18;;;;;;;18.12;14.58;;;;;;;24.93;66.03;99237.90;1782222;80;21009;-40
2021/07/28 05:54:44;;;;;;;17.55;15.25;;;;;;;25.02;66.13;99240.69;1782536;80;21112;-40
2021/07/28 05:57:11;;;;;;;20.30;16.35;;;;;;;25.07;64.50;99238.69;1782323;80;21216;-40
2021/07/28 05:59:37;;;;;;;19.17;16.50;;;;;;;25.06;64.45;99237.92;1782179;80;21008;-40
2021/07/28 06:02:04;;;;;;;20.15;16.77;;;;;;;25.07;64.15;99237.30;1782082;80;20988;-40
2021/07/28 06:04:31;;;;;;;20.20;16.30;;;;;;;25.06;64.79;99237.92;1782340;80;21028;-40
2021/07/28 06:06:58;;;;;;;16.20;14.60;;;;;;;25.04;64.63;99243.75;1782111;80;21036;-40
2021/07/28 06:09:24;;;;;;;17.95;14.63;;;;;;;25.08;64.70;99233.27;1782362;80;21597;-40
2021/07/28 06:11:51;;;;;;;17.45;14.47;;;;;;;25.15;64.78;99237.15;1773876;80;21555;-40
2021/07/28 06:14:18;;;;;;;20.27;14.10;;;;;;;25.22;64.85;99236.86;1774090;80;20906;-40
2021/07/28 06:16:44;;;;;;;17.35;13.95;;;;;;;25.29;64.32;99237.92;1773886;80;21265;-40
2021/07/28 06:19:11;;;;;;;17.15;13.88;;;;;;;25.35;63.94;99241.64;1773998;80;21077;-40
2021/07/28 06:21:37;;;;;;;18.05;13.35;;;;;;;25.37;63.98;99237.77;1774083;80;21132;-40
2021/07/28 06:24:05;;;;;;;15.93;12.43;;;;;;;25.40;63.84;99237.47;1774092;80;20933;-40
2021/07/28 06:26:31;;;;;;;19.48;12.58;;;;;;;25.43;63.71;99231.76;1773941;80;20977;-40
2021/07/28 06:28:58;;;;;;;14.50;11.57;;;;;;;25.46;63.51;99228.69;1773890;80;21099;-40
2021/07/28 06:31:25;;;;;;;15.38;11.85;;;;;;;25.50;64.08;99231.45;1773920;80;21009;-40
2021/07/28 06:33:51;;;;;;;19.62;12.05;;;;;;;25.54;64.16;99225.74;1774100;80;21096;-40
2021/07/28 06:36:18;;;;;;;16.45;12.45;;;;;;;25.64;63.98;99223.14;1773946;80;21499;-40
2021/07/28 06:38:45;;;;;;;16.80;13.50;;;;;;;25.78;63.77;99224.50;1774001;80;21516;-40
2021/07/28 06:41:12;;;;;;;20.40;13.58;;;;;;;25.88;63.48;99225.41;1774113;80;21507;-40
2021/07/28 06:43:40;;;;;;;15.88;12.33;;;;;;;25.98;63.11;99226.78;1773989;80;21096;-40
2021/07/28 06:46:07;;;;;;;20.02;13.15;;;;;;;26.05;62.94;99220.27;1773960;80;21138;-40
2021/07/28 06:48:34;;;;;;;16.70;11.68;;;;;;;26.13;62.97;99220.72;1773965;80;20981;-40
2021/07/28 06:51:01;;;;;;;17.87;11.10;;;;;;;26.23;62.89;99220.25;1773914;80;21521;-40
2021/07/28 06:53:27;;;;;;;13.65;9.28;;;;;;;26.35;62.05;99228.99;1773977;80;21590;-41
2021/07/28 06:55:54;;;;;;;13.45;9.08;;;;;;;26.46;61.29;99227.09;1773905;80;21045;-40
2021/07/28 06:58:20;;;;;;;13.32;8.43;;;;;;;26.59;61.49;99230.42;1774025;80;21081;-41
2021/07/28 07:00:49;;;;;;;13.72;9.13;;;;;;;26.66;60.65;99232.09;1773843;80;20960;-41
2021/07/28 07:03:15;;;;;;;14.78;9.13;;;;;;;26.72;60.08;99226.80;1774104;80;21053;-41
2021/07/28 07:05:42;;;;;;;11.90;8.40;;;;;;;26.81;60.25;99227.38;1773842;80;20990;-41
2021/07/28 07:08:13;;;;;;;14.47;9.18;;;;;;;26.88;59.84;99225.66;1773898;80;20909;-41
2021/07/28 07:10:39;;;;;;;13.05;9.83;;;;;;;26.96;59.88;99224.69;1776781;80;21137;-41
2021/07/28 07:13:06;;;;;;;16.73;10.05;;;;;;;27.02;59.75;99226.33;1782018;80;20968;-41
2021/07/28 07:15:34;;;;;;;15.25;8.73;;;;;;;27.09;60.04;99231.55;1782183;80;20926;-41
2021/07/28 07:18:01;;;;;;;17.65;9.13;;;;;;;27.15;59.65;99235.22;1782120;80;21044;-41
2021/07/28 07:20:29;;;;;;;12.28;8.90;;;;;;;27.25;59.29;99238.70;1782267;80;21036;-41
2021/07/28 07:22:55;;;;;;;19.05;10.00;;;;;;;27.35;59.17;99239.41;1782225;80;21136;-41
2021/07/28 07:25:22;;;;;;;16.02;9.98;;;;;;;27.38;58.67;99244.01;1782251;80;21068;-41
2021/07/28 07:27:49;;;;;;;14.58;9.20;;;;;;;27.37;57.90;99242.47;1781993;80;21001;-41
2021/07/28 07:30:16;;;;;;;16.12;8.70;;;;;;;27.39;57.94;99245.55;1782173;80;21037;-41
2021/07/28 07:32:43;;;;;;;14.30;9.40;;;;;;;27.43;58.19;99246.91;1782277;80;21515;-41
2021/07/28 07:35:11;;;;;;;12.73;8.43;;;;;;;27.26;57.47;99216.56;1782147;80;21820;-41
2021/07/28 07:37:39;;;;;;;12.43;8.45;;;;;;;27.56;57.20;99250.84;1782156;80;21211;-41
2021/07/28 07:40:08;;;;;;;13.80;8.90;;;;;;;27.61;57.08;99259.92;1782225;80;21005;-41
2021/07/28 07:42:35;;;;;;;13.30;8.20;;;;;;;27.64;57.66;99256.20;1782448;80;21039;-41
2021/07/28 07:45:03;;;;;;;13.65;8.03;;;;;;;27.66;55.63;99253.69;1782352;80;21487;-41
2021/07/28 07:47:29;;;;;;;14.87;8.40;;;;;;;27.66;56.21;99259.27;1782182;80;21567;-41
2021/07/28 07:49:57;;;;;;;12.37;8.40;;;;;;;27.69;56.32;99255.54;1782004;80;21432;-41
2021/07/28 07:52:23;;;;;;;11.70;8.00;;;;;;;27.74;56.58;99254.84;1782108;80;21016;-41
2021/07/28 07:54:50;;;;;;;13.05;8.33;;;;;;;27.86;57.04;99248.86;1782132;80;20993;-41
2021/07/28 07:57:17;;;;;;;13.30;8.58;;;;;;;27.96;56.26;99243.34;1782227;80;21024;-41
2021/07/28 07:59:44;;;;;;;12.23;8.48;;;;;;;28.02;56.37;99254.74;1782168;80;21082;-41
2021/07/28 08:02:10;;;;;;;13.60;8.75;;;;;;;28.10;56.21;99250.31;1782138;80;21515;-41
2021/07/28 08:04:38;;;;;;;15.50;8.03;;;;;;;28.19;57.00;99254.27;1782153;80;20945;-41
2021/07/28 08:07:05;;;;;;;11.50;8.53;;;;;;;28.29;56.22;99252.30;1782105;80;20969;-41
2021/07/28 08:09:33;;;;;;;13.90;8.03;;;;;;;28.38;54.77;99250.02;1782109;80;21566;-41
2021/07/28 08:12:00;;;;;;;13.60;8.43;;;;;;;28.41;55.13;99249.06;1775751;80;21138;-41
2021/07/28 08:14:26;;;;;;;16.42;8.43;;;;;;;28.45;54.76;99248.23;1773934;80;20969;-41
2021/07/28 08:16:53;;;;;;;10.30;8.03;;;;;;;28.52;53.77;99253.40;1773839;80;21472;-41
2021/07/28 08:19:20;;;;;;;15.10;7.95;;;;;;;28.58;54.78;99247.28;1773784;80;21017;-41
2021/07/28 08:21:47;;;;;;;9.68;7.28;;;;;;;28.68;53.58;99247.93;1773885;80;21079;-41
2021/07/28 08:24:16;;;;;;;15.98;7.85;;;;;;;28.76;53.88;99247.06;1773865;80;21255;-41
2021/07/28 08:26:43;;;;;;;12.60;7.60;;;;;;;28.87;53.04;99243.04;1773784;80;21522;-41
2021/07/28 08:29:11;;;;;;;13.77;8.03;;;;;;;28.95;52.75;99248.34;1773884;80;20942;-41
2021/07/28 08:31:37;;;;;;;15.23;8.10;;;;;;;29.05;53.03;99245.44;1773769;80;20994;-41
2021/07/28 08:34:04;;;;;;;13.15;7.70;;;;;;;29.16;52.38;99241.38;1773748;80;21025;-41
2021/07/28 08:36:31;;;;;;;16.77;7.58;;;;;;;29.20;51.11;99239.91;1773821;80;21133;-41
2021/07/28 08:38:58;;;;;;;13.93;8.03;;;;;;;29.24;51.50;99239.06;1773706;80;21499;-41
2021/07/28 08:41:26;;;;;;;11.68;6.95;;;;;;;29.32;51.12;99239.45;1774062;80;21071;-41
2021/07/28 08:43:57;;;;;;;15.40;7.90;;;;;;;29.38;50.72;99246.50;1774032;80;20986;-41
2021/07/28 08:46:25;;;;;;;15.05;7.67;;;;;;;29.39;50.17;99245.99;1773890;80;21080;-41
2021/07/28 08:48:53;;;;;;;13.50;7.08;;;;;;;29.46;50.44;99241.39;1773746;80;21111;-41
2021/07/28 08:51:26;;;;;;;9.78;7.33;;;;;;;29.58;49.81;99246.48;1773651;80;20950;-41
2021/07/28 08:53:53;;;;;;;13.38;7.78;;;;;;;29.66;49.33;99245.55;1752646;80;21012;-41
2021/07/28 08:56:22;;;;;;;11.05;6.92;;;;;;;29.75;49.53;99237.00;1773952;80;21084;-41
2021/07/28 08:58:49;;;;;;;11.20;7.60;;;;;;;29.87;49.42;99244.84;1771043;80;25604;-41
2021/07/28 09:01:16;;;;;;;12.47;7.17;;;;;;;29.94;49.32;99242.27;1680958;85;21137;-41
2021/07/28 09:03:46;;;;;;;10.78;6.62;;;;;;;30.00;48.57;99247.30;1758466;81;21547;-41
2021/07/28 09:06:29;;;;;;;13.50;7.12;;;;;;;30.06;48.05;99247.49;1681410;85;20946;-41
2021/07/28 09:08:59;;;;;;;12.58;7.05;;;;;;;30.16;46.89;99237.63;1758597;81;21002;-41
2021/07/28 09:11:26;;;;;;;10.35;6.97;;;;;;;30.26;46.98;99238.87;1681244;84;21097;-41
2021/07/28 09:13:57;;;;;;;13.45;7.45;;;;;;;30.35;46.11;99238.69;1758691;81;21137;-41
2021/07/28 09:16:26;;;;;;;9.25;7.20;;;;;;;30.40;46.48;99236.56;1758412;81;20923;-41
2021/07/28 09:18:53;;;;;;;11.83;6.62;;;;;;;30.50;46.25;99232.34;1714986;81;21005;-41
2021/07/28 09:21:25;;;;;;;10.30;6.87;;;;;;;30.57;46.38;99231.87;1681384;85;21038;-41
2021/07/28 09:23:57;;;;;;;10.13;6.45;;;;;;;30.65;46.47;99230.13;1758525;81;21547;-41
2021/07/28 09:26:36;;;;;;;10.10;6.28;;;;;;;30.76;45.12;99232.23;1758664;81;21126;-41
2021/07/28 09:29:13;;;;;;;10.13;6.42;;;;;;;30.85;43.93;99230.00;1758640;81;21065;-41
2021/07/28 09:31:53;;;;;;;13.68;6.92;;;;;;;30.93;45.00;99233.88;1675424;84;21040;-41
2021/07/28 09:34:24;;;;;;;;;;;;;;;30.95;44.26;99226.35;1761490;81;21076;-41
2021/07/28 09:36:56;;;;;;;11.75;6.72;;;;;;;31.00;44.38;99224.22;1758941;81;20169;-41
2021/07/28 09:39:31;;;;;;;10.20;6.80;;;;;;;30.96;44.35;99227.26;1681696;85;21570;-41
2021/07/28 09:42:02;;;;;;;10.88;7.20;;;;;;;30.99;45.28;99225.48;1758649;81;21548;-41
2021/07/28 09:44:31;;;;;;;10.65;6.90;;;;;;;31.04;45.59;99218.53;1757841;81;21103;-41
2021/07/28 09:47:13;;;;;;;14.73;7.30;;;;;;;31.15;44.22;99220.62;1758652;81;21536;-41
2021/07/28 09:49:49;;;;;;;8.53;6.25;;;;;;;31.25;45.94;99225.36;1681294;85;23378;-41
2021/07/28 09:52:19;;;;;;;13.55;7.40;;;;;;;31.27;45.01;99217.23;1758897;81;21135;-41
2021/07/28 09:54:48;;;;;;;10.60;7.33;;;;;;;31.26;45.17;99216.47;1759433;79;20970;-41
2021/07/28 09:57:23;;;;;;;16.48;8.00;;;;;;;31.28;45.52;99213.91;1681592;85;21041;-41
2021/07/28 09:59:55;;;;;;;12.37;7.35;;;;;;;31.40;46.32;99210.52;1757419;81;20965;-41
2021/07/28 10:02:24;;;;;;;11.93;6.70;;;;;;;31.49;46.09;99203.28;1681444;85;21065;-41
2021/07/28 10:04:53;;;;;;;12.63;6.97;;;;;;;31.59;45.02;99203.83;1758944;81;21504;-41
2021/07/28 10:07:22;;;;;;;9.85;6.83;;;;;;;31.63;45.33;99201.55;1758817;81;21536;-41
2021/07/28 10:10:04;;;;;;;12.07;7.47;;;;;;;31.65;43.97;99201.81;1758736;81;21587;-41
2021/07/28 10:12:36;;;;;;;13.58;7.28;;;;;;;31.64;43.79;99204.48;1758568;81;20986;-41
2021/07/28 10:15:08;;;;;;;11.20;7.60;;;;;;;31.61;42.76;99199.90;1758785;81;20993;-41
2021/07/28 10:17:40;;;;;;;11.48;7.42;;;;;;;31.60;43.61;99199.77;1758712;81;21799;-41
2021/07/28 10:20:12;;;;;;;10.65;6.25;;;;;;;31.66;44.09;99199.14;1758769;81;21005;-41
2021/07/28 10:22:40;;;;;;;11.70;7.15;;;;;;;31.77;44.20;99199.14;1675680;85;21037;-42
2021/07/28 10:25:15;;;;;;;12.73;7.00;;;;;;;31.90;43.62;99196.62;1758835;81;21046;-41
2021/07/28 10:27:50;;;;;;;12.93;6.87;;;;;;;32.03;43.73;99192.66;1681581;85;21137;-41
2021/07/28 10:30:22;;;;;;;10.13;6.72;;;;;;;32.17;43.11;99183.25;1761466;80;21741;-41
2021/07/28 10:32:49;;;;;;;11.45;6.87;;;;;;;32.33;43.04;99188.08;1774053;80;21025;-41
2021/07/28 10:35:24;;;;;;;11.53;6.75;;;;;;;32.45;41.95;99183.83;1774177;80;21507;-41
2021/07/28 10:37:53;;;;;;;9.90;6.70;;;;;;;32.51;41.62;99188.80;1774091;80;21548;-41
2021/07/28 10:40:32;;;;;;;9.48;6.50;;;;;;;32.59;41.27;99184.17;1774035;80;21033;-41
2021/07/28 10:43:02;;;;;;;8.70;6.12;;;;;;;32.70;40.62;99182.14;1774197;80;21099;-41
2021/07/28 10:45:56;;;;;;;7.67;5.87;;;;;;;32.73;40.34;99184.55;1773916;80;20918;-42
2021/07/28 10:48:47;;;;;;;9.30;5.78;;;;;;;32.70;39.11;99181.38;1774254;80;20934;-41
2021/07/28 10:51:51;;;;;;;8.58;6.00;;;;;;;32.64;39.87;99178.58;1774019;80;20946;-41
2021/07/28 10:54:17;;;;;;;8.70;6.00;;;;;;;32.66;39.77;99174.63;1774118;80;21468;-41
2021/07/28 10:57:08;;;;;;;10.05;5.92;;;;;;;32.75;37.88;99171.53;1773939;80;21177;-41
2021/07/28 10:59:41;;;;;;;8.23;5.20;;;;;;;32.81;38.07;99172.92;1774060;80;20965;-41
2021/07/28 11:02:09;;;;;;;7.95;5.58;;;;;;;32.91;37.04;99169.95;1773954;80;21031;-41
2021/07/28 11:04:35;;;;;;;6.45;5.22;;;;;;;33.04;37.14;99165.92;1774221;80;20997;-41
2021/07/28 11:07:02;;;;;;;8.95;5.72;;;;;;;33.14;37.29;99166.38;1773882;80;21590;-41
2021/07/28 11:09:30;;;;;;;8.58;5.70;;;;;;;33.23;36.97;99167.52;1773944;80;21141;-41
2021/07/28 11:11:58;;;;;;;12.13;7.15;;;;;;;33.36;37.01;99155.67;1776452;80;21048;-42
2021/07/28 11:14:26;;;;;;;8.65;6.08;;;;;;;33.54;38.17;99161.45;1782439;80;20961;-42
2021/07/28 11:16:54;;;;;;;10.58;5.60;;;;;;;33.73;37.21;99161.59;1782183;80;21017;-41
2021/07/28 11:19:22;;;;;;;7.90;5.70;;;;;;;33.88;35.95;99162.63;1782544;80;21006;-42
2021/07/28 11:21:49;;;;;;;8.70;5.90;;;;;;;34.01;36.18;99155.09;1782300;80;21156;-42
2021/07/28 11:24:17;;;;;;;11.05;6.58;;;;;;;34.29;37.01;99149.22;1782391;80;21000;-42
2021/07/28 11:26:47;;;;;;;8.45;6.35;;;;;;;34.67;36.97;99154.32;1782478;80;21012;-42
2021/07/28 11:29:20;;;;;;;9.15;5.80;;;;;;;34.94;34.62;99148.89;1782506;80;21511;-42
2021/07/28 11:31:48;;;;;;;8.18;5.55;;;;;;;35.03;33.09;99144.28;1782254;80;21020;-42